createdAt,value
2023-03-10T00:01:25.727Z,97561.47
2023-03-10T00:03:54.664Z,97561.81
2023-03-10T00:06:24.979Z,97549.88
2023-03-10T00:08:52.234Z,97572.03
2023-03-10T00:11:19.882Z,97564.03
2023-03-10T00:13:47.301Z,97570.84
2023-03-10T00:16:24.937Z,97561.81
2023-03-10T00:18:52.705Z,97551.16
2023-03-10T00:21:24.729Z,97574.63
2023-03-10T00:23:52.582Z,97559.34
2023-03-10T00:26:21.640Z,97543.00
2023-03-10T00:28:48.815Z,97560.81
2023-03-10T00:31:22.676Z,97553.66
2023-03-10T00:33:50.332Z,97564.13
2023-03-10T00:36:23.706Z,97570.09
2023-03-10T00:38:52.504Z,97576.63
2023-03-10T00:41:24.171Z,97588.94
2023-03-10T00:43:52.162Z,97585.00
2023-03-10T00:46:20.054Z,97584.59
2023-03-10T00:48:46.860Z,97593.81
2023-03-10T00:51:13.725Z,97595.84
2023-03-10T00:53:41.964Z,97593.00
2023-03-10T00:56:21.583Z,97610.56
2023-03-10T00:58:52.869Z,97611.19
2023-03-10T01:01:24.018Z,97604.47
2023-03-10T01:03:54.049Z,97606.03
2023-03-10T01:06:22.072Z,97596.59
2023-03-10T01:08:49.685Z,97633.91
2023-03-10T01:11:19.925Z,97605.56
2023-03-10T01:13:47.972Z,97616.53
2023-03-10T01:16:14.816Z,97613.22
2023-03-10T01:18:43.410Z,97623.88
2023-03-10T01:21:18.361Z,97631.06
2023-03-10T01:23:45.161Z,97631.47
2023-03-10T01:26:12.096Z,97639.47
2023-03-10T01:28:41.278Z,97651.34
2023-03-10T01:31:09.966Z,97668.44
2023-03-10T01:33:45.184Z,97647.88
2023-03-10T01:36:19.589Z,97662.19
2023-03-10T01:38:47.409Z,97656.50
2023-03-10T01:41:42.680Z,97659.16
2023-03-10T01:44:22.341Z,97645.38
2023-03-10T01:46:56.314Z,97654.84
2023-03-10T01:49:39.707Z,97660.63
2023-03-10T01:52:16.828Z,97643.19
2023-03-10T01:55:03.386Z,97658.13
2023-03-10T01:57:36.517Z,97667.34
2023-03-10T02:00:13.053Z,97653.84
2023-03-10T02:03:17.868Z,97674.13
2023-03-10T02:06:00.262Z,97673.88
2023-03-10T02:08:46.346Z,97687.47
2023-03-10T02:11:15.510Z,97686.47
2023-03-10T02:13:42.470Z,97682.34
2023-03-10T02:16:10.147Z,97683.97
2023-03-10T02:18:37.203Z,97681.31
2023-03-10T02:21:31.676Z,97683.50
2023-03-10T02:24:25.805Z,97679.84
2023-03-10T02:27:04.833Z,97682.81
2023-03-10T02:29:52.497Z,97688.50
2023-03-10T02:32:25.605Z,97715.13
2023-03-10T02:34:52.771Z,97699.16
2023-03-10T02:37:32.135Z,97689.47
2023-03-10T02:39:59.628Z,97706.97
2023-03-10T02:42:35.570Z,97701.47
2023-03-10T02:45:04.357Z,97699.50
2023-03-10T02:47:31.518Z,97691.78
2023-03-10T02:49:58.382Z,97702.28
2023-03-10T02:52:45.381Z,97709.47
2023-03-10T02:55:17.736Z,97697.13
2023-03-10T02:57:45.101Z,97726.09
2023-03-10T03:00:13.266Z,97713.13
2023-03-10T03:02:40.073Z,97716.06
2023-03-10T03:05:07.891Z,97710.91
2023-03-10T03:07:34.874Z,97693.47
2023-03-10T03:10:02.156Z,97746.41
2023-03-10T03:12:29.685Z,97739.41
2023-03-10T03:14:56.471Z,97742.25
2023-03-10T03:17:23.608Z,97734.09
2023-03-10T03:19:50.401Z,97746.22
2023-03-10T03:22:17.500Z,97744.38
2023-03-10T03:24:44.476Z,97762.03
2023-03-10T03:27:11.274Z,97763.88
2023-03-10T03:29:38.202Z,97764.16
2023-03-10T03:32:05.463Z,97787.50
2023-03-10T03:34:32.302Z,97760.03
2023-03-10T03:36:59.555Z,97781.00
2023-03-10T03:39:26.362Z,97788.78
2023-03-10T03:41:55.273Z,97791.28
2023-03-10T03:44:22.047Z,97794.59
2023-03-10T03:46:48.961Z,97817.59
2023-03-10T03:49:16.016Z,97821.25
2023-03-10T03:51:42.780Z,97835.78
2023-03-10T03:54:09.574Z,97841.28
2023-03-10T03:56:36.370Z,97854.78
2023-03-10T03:59:03.599Z,97847.34
2023-03-10T04:01:31.370Z,97845.66
2023-03-10T04:03:58.259Z,97850.00
2023-03-10T04:06:25.061Z,97868.84
2023-03-10T04:08:51.953Z,97865.34
2023-03-10T04:11:19.054Z,97887.50
2023-03-10T04:13:45.875Z,97893.19
2023-03-10T04:16:12.772Z,97894.69
2023-03-10T04:18:39.870Z,97906.34
2023-03-10T04:21:06.696Z,97901.00
2023-03-10T04:23:33.623Z,97908.34
2023-03-10T04:26:00.459Z,97910.69
2023-03-10T04:28:27.240Z,97933.00
2023-03-10T04:30:54.396Z,97946.97
2023-03-10T04:33:21.300Z,97974.81
2023-03-10T04:35:49.077Z,97993.66
2023-03-10T04:38:16.079Z,98016.66
2023-03-10T04:40:42.944Z,98030.00
2023-03-10T04:43:09.941Z,98057.63
2023-03-10T04:45:37.541Z,98053.31
2023-03-10T04:48:04.342Z,98078.13
2023-03-10T04:50:31.318Z,98072.16
2023-03-10T04:52:58.154Z,98078.31
2023-03-10T04:55:25.023Z,98064.97
2023-03-10T04:57:52.063Z,98058.34
2023-03-10T05:00:20.181Z,98059.16
2023-03-10T05:02:47.380Z,98077.97
2023-03-10T05:05:14.455Z,98092.34
2023-03-10T05:07:42.262Z,98101.34
2023-03-10T05:10:11.142Z,98102.00
2023-03-10T05:12:39.726Z,98107.16
2023-03-10T05:15:07.623Z,98127.34
2023-03-10T05:17:34.615Z,98140.16
2023-03-10T05:20:01.495Z,98184.97
2023-03-10T05:22:28.276Z,98202.97
2023-03-10T05:24:55.090Z,98224.13
2023-03-10T05:27:22.283Z,98261.91
2023-03-10T05:29:49.281Z,98270.06
2023-03-10T05:32:16.334Z,98297.88
2023-03-10T05:34:43.190Z,98287.38
2023-03-10T05:37:09.989Z,98289.88
2023-03-10T05:39:36.782Z,98292.56
2023-03-10T05:42:03.729Z,98290.72
2023-03-10T05:44:30.702Z,98308.53
2023-03-10T05:46:57.713Z,98315.50
2023-03-10T05:49:24.592Z,98323.84
2023-03-10T05:51:51.473Z,98358.47
2023-03-10T05:54:19.161Z,98373.31
2023-03-10T05:56:45.964Z,98409.63
2023-03-10T05:59:12.768Z,98424.44
2023-03-10T06:01:39.807Z,98439.59
2023-03-10T06:04:06.967Z,98479.72
2023-03-10T06:06:33.889Z,98478.69
2023-03-10T06:09:01.088Z,98507.41
2023-03-10T06:11:28.436Z,98472.56
2023-03-10T06:13:55.438Z,98533.69
2023-03-10T06:16:22.267Z,98519.56
2023-03-10T06:18:56.957Z,98514.38
2023-03-10T06:21:28.469Z,98497.41
2023-03-10T06:23:55.319Z,98486.53
2023-03-10T06:26:23.100Z,98513.19
2023-03-10T06:28:50.260Z,98497.69
2023-03-10T06:31:24.721Z,98503.47
2023-03-10T06:33:53.085Z,98567.91
2023-03-10T06:36:21.653Z,98566.22
2023-03-10T06:38:50.121Z,98568.53
2023-03-10T06:41:17.029Z,98557.53
2023-03-10T06:43:44.365Z,98591.34
2023-03-10T06:46:13.168Z,98573.50
2023-03-10T06:48:42.188Z,98592.13
2023-03-10T06:51:13.585Z,98591.31
2023-03-10T06:53:40.765Z,98611.44
2023-03-10T06:56:18.837Z,98618.47
2023-03-10T06:58:46.526Z,98650.78
2023-03-10T07:01:29.939Z,98641.28
2023-03-10T07:03:57.869Z,98652.09
2023-03-10T07:06:25.885Z,98670.72
2023-03-10T07:08:54.571Z,98667.91
2023-03-10T07:11:22.949Z,98678.88
2023-03-10T07:13:50.432Z,98674.22
2023-03-10T07:16:17.901Z,98684.88
2023-03-10T07:18:45.608Z,98689.38
2023-03-10T07:21:17.321Z,98689.53
2023-03-10T07:23:45.587Z,98689.53
2023-03-10T07:26:15.726Z,98707.34
2023-03-10T07:28:42.516Z,98722.34
2023-03-10T07:31:13.167Z,98742.25
2023-03-10T07:33:40.285Z,98747.16
2023-03-10T07:36:11.388Z,98777.56
2023-03-10T07:38:38.584Z,98792.84
2023-03-10T07:41:11.255Z,98803.22
2023-03-10T07:43:38.512Z,98816.63
2023-03-10T07:46:12.400Z,98832.59
2023-03-10T07:48:39.881Z,98834.44
2023-03-10T07:51:07.543Z,98836.50
2023-03-10T07:53:34.696Z,98848.50
2023-03-10T07:56:06.600Z,98872.59
2023-03-10T07:58:34.441Z,98893.09
2023-03-10T08:01:01.570Z,98903.44
2023-03-10T08:03:29.503Z,98921.13
2023-03-10T08:05:57.259Z,98931.16
2023-03-10T08:08:24.464Z,98946.88
2023-03-10T08:10:56.699Z,98957.00
2023-03-10T08:13:23.528Z,98958.59
2023-03-10T08:15:50.344Z,98975.44
2023-03-10T08:18:17.198Z,98981.84
2023-03-10T08:20:44.016Z,98997.94
2023-03-10T08:23:10.938Z,99005.09
2023-03-10T08:25:39.035Z,99004.09
2023-03-10T08:28:05.848Z,99007.84
2023-03-10T08:30:32.781Z,99013.59
2023-03-10T08:32:59.698Z,99022.28
2023-03-10T08:35:26.936Z,99031.50
2023-03-10T08:37:55.317Z,99033.72
2023-03-10T08:40:22.379Z,99034.00
2023-03-10T08:42:49.197Z,99048.19
2023-03-10T08:45:16.205Z,99074.13
2023-03-10T08:47:43.228Z,99087.53
2023-03-10T08:50:11.919Z,99087.09
2023-03-10T08:52:39.758Z,99092.13
2023-03-10T08:55:08.541Z,99086.50
2023-03-10T08:57:35.485Z,99103.06
2023-03-10T09:00:05.056Z,99114.09
2023-03-10T09:02:32.318Z,99122.97
2023-03-10T09:04:59.296Z,99127.84
2023-03-10T09:07:26.163Z,99123.19
2023-03-10T09:09:53.115Z,99129.91
2023-03-10T09:12:20.105Z,99122.69
2023-03-10T09:14:47.405Z,99136.31
2023-03-10T09:17:14.363Z,99154.16
2023-03-10T09:19:41.191Z,99163.00
2023-03-10T09:22:08.312Z,99165.31
2023-03-10T09:24:35.129Z,99177.16
2023-03-10T09:27:01.933Z,99178.88
2023-03-10T09:29:42.732Z,99198.53
2023-03-10T09:32:10.794Z,99210.91
2023-03-10T09:34:37.938Z,99211.59
2023-03-10T09:37:06.971Z,99219.59
2023-03-10T09:39:35.396Z,99224.75
2023-03-10T09:42:39.421Z,99227.97
2023-03-10T09:45:47.264Z,99234.72
2023-03-10T09:48:51.428Z,99233.72
2023-03-10T09:51:25.543Z,99257.06
2023-03-10T09:54:24.707Z,99266.16
2023-03-10T09:56:54.722Z,99279.91
2023-03-10T09:59:34.203Z,99287.75
2023-03-10T10:02:04.461Z,99295.34
2023-03-10T10:04:39.793Z,99305.41
2023-03-10T10:07:19.698Z,99298.78
2023-03-10T10:09:53.376Z,99301.56
2023-03-10T10:12:24.058Z,99305.63
2023-03-10T10:15:07.821Z,99295.72
2023-03-10T10:18:18.856Z,99305.50
2023-03-10T10:20:59.367Z,99317.56
2023-03-10T10:23:49.865Z,99326.38
2023-03-10T10:26:24.648Z,99337.75
2023-03-10T10:29:07.219Z,99334.09
2023-03-10T10:31:36.092Z,99356.56
2023-03-10T10:34:07.388Z,99363.59
2023-03-10T10:36:37.964Z,99370.53
2023-03-10T10:39:37.890Z,99380.47
2023-03-10T10:42:32.326Z,99378.34
2023-03-10T10:45:25.351Z,99395.25
2023-03-10T10:47:55.384Z,99391.56
2023-03-10T10:50:31.821Z,99396.09
2023-03-10T10:53:21.102Z,99395.25
2023-03-10T10:56:07.034Z,99401.97
2023-03-10T10:58:39.783Z,99413.75
2023-03-10T11:01:12.751Z,99412.13
2023-03-10T11:03:46.360Z,99406.88
2023-03-10T11:06:35.088Z,99412.69
2023-03-10T11:09:13.032Z,99408.03
2023-03-10T11:12:28.605Z,99406.97
2023-03-10T11:15:20.606Z,99404.63
2023-03-10T11:17:56.200Z,99396.38
2023-03-10T11:20:33.003Z,99407.91
2023-03-10T11:23:30.359Z,99406.25
2023-03-10T11:26:03.195Z,99409.59
2023-03-10T11:28:55.165Z,99400.59
2023-03-10T11:31:31.082Z,99419.47
2023-03-10T11:34:20.644Z,99420.00
2023-03-10T11:37:14.558Z,99456.56
2023-03-10T11:39:56.319Z,99471.38
2023-03-10T11:42:34.158Z,99488.13
2023-03-10T11:45:27.361Z,99497.06
2023-03-10T11:48:29.546Z,99498.41
2023-03-10T11:50:59.976Z,99506.09
2023-03-10T11:53:52.239Z,99515.81
2023-03-10T11:56:25.351Z,99527.84
2023-03-10T11:59:00.152Z,99532.81
2023-03-10T12:01:49.705Z,99540.56
2023-03-10T12:04:35.609Z,99553.34
2023-03-10T12:07:17.334Z,99565.97
2023-03-10T12:09:51.411Z,99557.03
2023-03-10T12:12:31.463Z,99559.13
2023-03-10T12:15:03.323Z,99561.88
2023-03-10T12:17:30.327Z,99567.59
2023-03-10T12:20:16.303Z,99568.09
2023-03-10T12:22:46.843Z,99572.91
2023-03-10T12:25:29.166Z,99584.03
2023-03-10T12:28:17.654Z,99584.38
2023-03-10T12:30:56.717Z,99595.03
2023-03-10T12:33:37.685Z,99601.34
2023-03-10T12:36:27.827Z,99596.88
2023-03-10T12:38:58.115Z,99612.50
2023-03-10T12:41:27.980Z,99605.78
2023-03-10T12:44:21.925Z,99601.59
2023-03-10T12:47:32.370Z,99610.59
2023-03-10T12:50:20.475Z,99611.13
2023-03-10T12:52:57.963Z,99609.41
2023-03-10T12:55:28.896Z,99617.88
2023-03-10T12:58:05.218Z,99611.06
2023-03-10T13:00:54.110Z,99620.19
2023-03-10T13:03:30.148Z,99617.06
2023-03-10T13:06:07.522Z,99607.56
2023-03-10T13:08:44.410Z,99612.16
2023-03-10T13:11:43.253Z,99606.63
2023-03-10T13:14:14.588Z,99599.81
2023-03-10T13:16:42.562Z,99593.59
2023-03-10T13:19:21.529Z,99590.66
2023-03-10T13:21:50.659Z,99579.78
2023-03-10T13:24:27.822Z,99596.31
2023-03-10T13:27:16.394Z,99586.81
2023-03-10T13:30:14.155Z,99589.81
2023-03-10T13:32:41.886Z,99575.25
2023-03-10T13:35:39.237Z,99578.22
2023-03-10T13:38:26.634Z,99594.84
2023-03-10T13:41:02.628Z,99601.59
2023-03-10T13:43:52.559Z,99601.81
2023-03-10T13:46:33.868Z,99609.88
2023-03-10T13:49:06.889Z,99621.53
2023-03-10T13:51:37.444Z,99622.06
2023-03-10T13:54:33.656Z,99616.06
2023-03-10T13:57:20.754Z,99620.16
2023-03-10T13:59:48.700Z,99626.22
2023-03-10T14:02:32.851Z,99634.34
2023-03-10T14:05:01.112Z,99630.31
2023-03-10T14:07:34.447Z,99651.50
2023-03-10T14:10:08.809Z,99668.59
2023-03-10T14:12:50.135Z,99659.50
2023-03-10T14:15:19.688Z,99645.75
2023-03-10T14:17:48.961Z,99648.09
2023-03-10T14:20:31.878Z,99662.88
2023-03-10T14:23:19.269Z,99660.84
2023-03-10T14:25:54.505Z,99680.41
2023-03-10T14:28:31.611Z,99686.97
2023-03-10T14:31:02.681Z,99700.25
2023-03-10T14:33:29.711Z,99685.59
2023-03-10T14:35:56.903Z,99689.50
2023-03-10T14:38:23.710Z,99700.41
2023-03-10T14:40:55.118Z,99691.84
2023-03-10T14:43:26.092Z,99694.50
2023-03-10T14:45:56.271Z,99690.25
2023-03-10T14:48:26.644Z,99682.63
2023-03-10T14:50:56.662Z,99689.31
2023-03-10T14:53:26.557Z,99703.09
2023-03-10T14:55:56.418Z,99700.22
2023-03-10T14:58:28.239Z,99696.41
2023-03-10T15:00:55.178Z,99687.38
2023-03-10T15:03:22.095Z,99696.28
2023-03-10T15:05:49.611Z,99708.38
2023-03-10T15:08:18.064Z,99713.28
2023-03-10T15:10:50.768Z,99712.91
2023-03-10T15:13:21.369Z,99716.28
2023-03-10T15:15:49.317Z,99719.28
2023-03-10T15:18:20.111Z,99710.38
2023-03-10T15:20:47.720Z,99702.63
2023-03-10T15:23:18.828Z,99712.16
2023-03-10T15:25:46.539Z,99720.19
2023-03-10T15:28:14.141Z,99720.50
2023-03-10T15:30:41.587Z,99705.38
2023-03-10T15:33:08.643Z,99711.88
2023-03-10T15:35:35.685Z,99717.72
2023-03-10T15:38:03.124Z,99726.09
2023-03-10T15:40:35.541Z,99704.41
2023-03-10T15:43:02.942Z,99701.22
2023-03-10T15:45:31.841Z,99694.19
2023-03-10T15:47:59.107Z,99694.56
2023-03-10T15:50:26.946Z,99700.94
2023-03-10T15:52:56.862Z,99713.34
2023-03-10T15:55:25.395Z,99727.47
2023-03-10T15:57:52.859Z,99734.16
2023-03-10T16:00:22.886Z,99726.94
2023-03-10T16:02:50.931Z,99726.09
2023-03-10T16:05:18.846Z,99706.31
2023-03-10T16:07:45.808Z,99707.16
2023-03-10T16:10:16.266Z,99712.97
2023-03-10T16:12:43.171Z,99707.94
2023-03-10T16:15:11.185Z,99725.03
2023-03-10T16:17:38.141Z,99723.66
2023-03-10T16:20:12.205Z,99735.41
2023-03-10T16:22:43.280Z,99730.84
2023-03-10T16:25:17.416Z,99747.91
2023-03-10T16:27:46.166Z,99739.63
2023-03-10T16:30:17.924Z,99740.25
2023-03-10T16:32:49.870Z,99748.09
2023-03-10T16:35:18.088Z,99745.03
2023-03-10T16:37:44.980Z,99729.16
2023-03-10T16:40:12.952Z,99721.41
2023-03-10T16:42:43.391Z,99723.34
2023-03-10T16:45:11.183Z,99741.56
2023-03-10T16:47:38.084Z,99737.81
2023-03-10T16:50:05.483Z,99739.13
2023-03-10T16:52:32.278Z,99736.72
2023-03-10T16:55:01.662Z,99747.22
2023-03-10T16:57:28.529Z,99741.78
2023-03-10T16:59:55.379Z,99748.41
2023-03-10T17:02:22.749Z,99753.22
2023-03-10T17:04:49.629Z,99757.06
2023-03-10T17:07:16.513Z,99765.56
2023-03-10T17:09:43.328Z,99783.75
2023-03-10T17:12:10.199Z,99791.41
2023-03-10T17:14:37.404Z,99803.53
2023-03-10T17:17:06.555Z,99790.75
2023-03-10T17:19:35.024Z,99800.06
2023-03-10T17:22:01.925Z,99799.66
2023-03-10T17:24:29.265Z,99798.25
2023-03-10T17:26:56.056Z,99805.88
2023-03-10T17:29:22.926Z,99817.19
2023-03-10T17:31:51.868Z,99821.41
2023-03-10T17:34:20.140Z,99824.69
2023-03-10T17:36:50.448Z,99824.41
2023-03-10T17:39:21.541Z,99815.41
2023-03-10T17:41:48.815Z,99812.44
2023-03-10T17:44:16.696Z,99816.66
2023-03-10T17:46:43.710Z,99809.22
2023-03-10T17:49:13.007Z,99809.94
2023-03-10T17:51:43.814Z,99806.00
2023-03-10T17:54:15.139Z,99808.66
2023-03-10T17:56:42.432Z,99807.53
2023-03-10T17:59:12.912Z,99801.06
2023-03-10T18:01:40.540Z,99802.59
2023-03-10T18:04:08.087Z,99807.66
2023-03-10T18:06:36.712Z,99807.66
2023-03-10T18:09:08.454Z,99809.31
2023-03-10T18:11:35.505Z,99818.28
2023-03-10T18:14:04.014Z,99829.78
2023-03-10T18:16:35.299Z,99839.59
2023-03-10T18:19:04.232Z,99834.94
2023-03-10T18:21:31.293Z,99821.25
2023-03-10T18:23:58.671Z,99820.13
2023-03-10T18:26:32.524Z,99827.94
2023-03-10T18:29:00.274Z,99833.09
2023-03-10T18:31:32.039Z,99844.31
2023-03-10T18:33:59.842Z,99854.78
2023-03-10T18:36:28.297Z,99846.59
2023-03-10T18:38:55.857Z,99844.59
2023-03-10T18:41:27.359Z,99837.94
2023-03-10T18:43:54.278Z,99837.47
2023-03-10T18:46:22.263Z,99846.97
2023-03-10T18:48:55.652Z,99851.75
2023-03-10T18:51:25.506Z,99857.56
2023-03-10T18:53:53.036Z,99869.34
2023-03-10T18:56:20.011Z,99879.41
2023-03-10T18:58:47.161Z,99883.19
2023-03-10T19:01:15.506Z,99884.41
2023-03-10T19:03:42.689Z,99885.50
2023-03-10T19:06:10.184Z,99868.78
2023-03-10T19:08:39.364Z,99862.63
2023-03-10T19:11:07.162Z,99882.25
2023-03-10T19:13:34.372Z,99874.25
2023-03-10T19:16:07.088Z,99871.97
2023-03-10T19:18:34.149Z,99873.53
2023-03-10T19:21:01.215Z,99879.69
2023-03-10T19:23:29.220Z,99889.53
2023-03-10T19:25:56.313Z,99883.47
2023-03-10T19:28:23.560Z,99893.66
2023-03-10T19:30:50.396Z,99898.28
2023-03-10T19:33:17.350Z,99895.72
2023-03-10T19:35:44.999Z,99889.84
2023-03-10T19:38:11.865Z,99904.34
2023-03-10T19:40:38.919Z,99906.06
2023-03-10T19:43:05.991Z,99906.28
2023-03-10T19:45:33.211Z,99919.03
2023-03-10T19:48:00.198Z,99932.34
2023-03-10T19:50:27.845Z,99921.09
2023-03-10T19:52:54.652Z,99935.41
2023-03-10T19:55:25.306Z,99932.00
2023-03-10T19:57:56.159Z,99922.69
2023-03-10T20:00:31.387Z,99934.56
2023-03-10T20:02:59.186Z,99931.53
2023-03-10T20:05:27.062Z,99949.69
2023-03-10T20:07:54.347Z,99936.63
2023-03-10T20:10:21.162Z,99948.72
2023-03-10T20:12:48.275Z,99957.94
2023-03-10T20:15:15.844Z,99952.22
2023-03-10T20:17:42.830Z,99941.94
2023-03-10T20:20:11.136Z,99940.72
2023-03-10T20:22:47.926Z,99945.56
2023-03-10T20:25:21.891Z,99951.13
2023-03-10T20:27:51.754Z,99955.97
2023-03-10T20:30:27.751Z,99953.66
2023-03-10T20:32:56.816Z,99947.72
2023-03-10T20:35:24.556Z,99945.50
2023-03-10T20:37:51.458Z,99945.75
2023-03-10T20:40:24.093Z,99957.63
2023-03-10T20:42:55.786Z,99956.28
2023-03-10T20:45:23.854Z,99957.31
2023-03-10T20:47:50.800Z,99956.84
2023-03-10T20:50:18.010Z,99955.25
2023-03-10T20:52:45.106Z,99956.34
2023-03-10T20:55:28.563Z,99962.13
2023-03-10T20:57:59.529Z,99955.56
2023-03-10T21:00:29.360Z,99955.78
2023-03-10T21:02:57.490Z,99957.72
2023-03-10T21:05:26.741Z,99955.28
2023-03-10T21:07:54.478Z,99960.47
2023-03-10T21:10:22.005Z,99964.97
2023-03-10T21:12:51.381Z,99957.72
2023-03-10T21:15:19.734Z,99952.19
2023-03-10T21:17:46.980Z,99950.25
2023-03-10T21:20:20.002Z,99952.66
2023-03-10T21:22:47.575Z,99956.06
2023-03-10T21:25:21.768Z,99955.94
2023-03-10T21:27:55.897Z,99965.53
2023-03-10T21:30:23.764Z,99973.97
2023-03-10T21:32:51.105Z,99978.25
2023-03-10T21:35:18.211Z,99982.59
2023-03-10T21:37:48.643Z,99970.88
2023-03-10T21:40:20.498Z,99966.28
2023-03-10T21:42:48.640Z,99975.00
2023-03-10T21:45:22.295Z,99978.50
2023-03-10T21:47:50.475Z,99971.38
2023-03-10T21:50:18.581Z,99979.34
2023-03-10T21:52:46.946Z,99984.66
2023-03-10T21:55:25.834Z,99988.19
2023-03-10T21:57:52.944Z,99987.00
2023-03-10T22:00:23.224Z,99978.91
2023-03-10T22:02:52.501Z,99994.72
2023-03-10T22:05:20.720Z,99989.41
2023-03-10T22:07:47.617Z,99991.72
2023-03-10T22:10:15.423Z,99984.69
2023-03-10T22:12:42.469Z,99984.69
2023-03-10T22:15:17.007Z,99986.41
2023-03-10T22:17:43.812Z,99993.94
2023-03-10T22:20:18.523Z,99986.91
2023-03-10T22:22:45.775Z,99985.09
2023-03-10T22:25:14.655Z,99983.06
2023-03-10T22:27:42.218Z,99985.94
2023-03-10T22:30:10.843Z,99990.31
2023-03-10T22:32:37.684Z,99982.19
2023-03-10T22:35:05.105Z,99981.84
2023-03-10T22:37:31.949Z,99986.34
2023-03-10T22:39:58.805Z,99989.09
2023-03-10T22:42:25.680Z,99988.13
2023-03-10T22:44:52.640Z,99983.53
2023-03-10T22:47:19.615Z,99979.91
2023-03-10T22:49:46.579Z,99988.84
2023-03-10T22:52:13.914Z,99992.38
2023-03-10T22:54:40.728Z,99986.06
2023-03-10T22:57:07.512Z,99981.84
2023-03-10T22:59:34.332Z,99990.69
2023-03-10T23:02:01.257Z,99990.44
2023-03-10T23:04:28.306Z,99989.84
2023-03-10T23:06:55.269Z,99996.84
2023-03-10T23:09:22.186Z,99998.66
2023-03-10T23:11:49.404Z,99992.50
2023-03-10T23:14:16.386Z,99994.31
2023-03-10T23:16:43.253Z,99994.44
2023-03-10T23:19:10.281Z,99996.25
2023-03-10T23:21:37.500Z,99986.34
2023-03-10T23:24:05.127Z,99990.78
2023-03-10T23:26:35.136Z,99982.69
2023-03-10T23:29:03.051Z,99988.75
2023-03-10T23:31:30.076Z,99987.06
2023-03-10T23:33:57.005Z,99990.78
2023-03-10T23:36:24.416Z,99996.38
2023-03-10T23:38:51.181Z,99991.88
2023-03-10T23:41:18.623Z,99992.81
2023-03-10T23:43:45.530Z,99999.13
2023-03-10T23:46:12.670Z,99996.59
2023-03-10T23:48:39.574Z,99998.50
2023-03-10T23:51:14.869Z,100001.41
2023-03-10T23:53:43.266Z,100004.78
2023-03-10T23:56:10.971Z,100009.28
2023-03-10T23:58:38.294Z,100003.22
